createdAt,value
2018-02-08T00:00:39.626Z,38.58
2018-02-08T00:03:07.044Z,40.67
2018-02-08T00:05:34.481Z,42.45
2018-02-08T00:08:01.941Z,41.53
2018-02-08T00:10:29.379Z,41.50
2018-02-08T00:12:56.805Z,39.15
2018-02-08T00:15:24.236Z,40.20
2018-02-08T00:17:51.693Z,40.03
2018-02-08T00:20:19.118Z,38.42
2018-02-08T00:22:46.532Z,38.90
2018-02-08T00:25:13.974Z,38.35
2018-02-08T00:27:41.396Z,36.80
2018-02-08T00:30:08.837Z,39.25
2018-02-08T00:32:36.271Z,38.28
2018-02-08T00:35:03.702Z,39.80
2018-02-08T00:37:31.156Z,38.20
2018-02-08T00:39:58.569Z,40.25
2018-02-08T00:42:26.013Z,41.30
2018-02-08T00:44:53.431Z,38.30
2018-02-08T00:47:20.852Z,37.65
2018-02-08T00:49:48.294Z,41.47
2018-02-08T00:52:15.742Z,39.33
2018-02-08T00:54:43.179Z,39.65
2018-02-08T00:57:10.600Z,38.95
2018-02-08T00:59:38.034Z,39.65
2018-02-08T01:02:05.485Z,38.22
2018-02-08T01:04:32.921Z,36.88
2018-02-08T01:07:00.380Z,39.40
2018-02-08T01:09:27.834Z,38.95
2018-02-08T01:11:55.276Z,40.28
2018-02-08T01:14:22.687Z,39.38
2018-02-08T01:16:50.117Z,38.65
2018-02-08T01:19:17.602Z,40.85
2018-02-08T01:21:45.025Z,40.40
2018-02-08T01:24:12.451Z,39.22
2018-02-08T01:26:39.875Z,38.70
2018-02-08T01:29:07.300Z,39.03
2018-02-08T01:31:34.744Z,39.78
2018-02-08T01:34:02.189Z,38.20
2018-02-08T01:36:29.616Z,39.38
2018-02-08T01:38:57.028Z,37.95
2018-02-08T01:41:24.478Z,39.65
2018-02-08T01:43:51.927Z,39.00
2018-02-08T01:46:19.437Z,38.20
2018-02-08T01:48:46.853Z,37.10
2018-02-08T01:51:14.305Z,40.08
2018-02-08T01:53:41.773Z,36.42
2018-02-08T01:56:09.188Z,39.38
2018-02-08T01:58:36.621Z,40.45
2018-02-08T02:01:04.033Z,39.83
2018-02-08T02:03:31.452Z,37.05
2018-02-08T02:05:58.881Z,38.47
2018-02-08T02:08:26.292Z,38.00
2018-02-08T02:10:53.732Z,38.33
2018-02-08T02:13:21.147Z,36.60
2018-02-08T02:15:48.561Z,37.35
2018-02-08T02:18:15.977Z,37.10
2018-02-08T02:20:43.388Z,38.40
2018-02-08T02:23:10.817Z,35.58
2018-02-08T02:25:38.232Z,36.58
2018-02-08T02:28:05.642Z,39.58
2018-02-08T02:30:33.056Z,38.53
2018-02-08T02:33:00.469Z,37.75
2018-02-08T02:35:27.893Z,37.85
2018-02-08T02:37:55.344Z,38.72
2018-02-08T02:40:22.749Z,37.20
2018-02-08T02:42:50.178Z,39.25
2018-02-08T02:45:17.626Z,38.20
2018-02-08T02:47:45.021Z,37.85
2018-02-08T02:50:12.437Z,39.33
2018-02-08T02:52:39.850Z,37.38
2018-02-08T02:55:07.264Z,37.50
2018-02-08T02:57:34.697Z,37.92
2018-02-08T03:00:02.134Z,35.08
2018-02-08T03:02:29.560Z,38.13
2018-02-08T03:04:56.969Z,37.83
2018-02-08T03:07:24.394Z,36.17
2018-02-08T03:09:51.805Z,37.28
2018-02-08T03:12:19.236Z,37.78
2018-02-08T03:14:46.643Z,37.55
2018-02-08T03:17:14.058Z,38.13
2018-02-08T03:19:41.481Z,37.15
2018-02-08T03:22:08.884Z,37.42
2018-02-08T03:24:36.313Z,37.85
2018-02-08T03:27:03.724Z,35.90
2018-02-08T03:29:31.148Z,34.95
2018-02-08T03:31:58.560Z,36.78
2018-02-08T03:34:25.989Z,35.03
2018-02-08T03:36:53.412Z,34.70
2018-02-08T03:39:20.824Z,37.33
2018-02-08T03:41:48.241Z,39.75
2018-02-08T03:44:15.669Z,38.72
2018-02-08T03:46:43.080Z,38.90
2018-02-08T03:49:10.523Z,39.25
2018-02-08T03:51:37.988Z,38.83
2018-02-08T03:54:05.393Z,39.45
2018-02-08T03:56:32.805Z,37.97
2018-02-08T03:59:00.231Z,35.22
2018-02-08T04:01:27.649Z,36.13
2018-02-08T04:03:55.060Z,35.72
2018-02-08T04:06:22.473Z,38.30
2018-02-08T04:08:49.892Z,36.90
2018-02-08T04:11:17.308Z,35.30
2018-02-08T04:13:44.740Z,35.03
2018-02-08T04:16:12.152Z,34.20
2018-02-08T04:18:39.572Z,33.83
2018-02-08T04:21:06.981Z,34.33
2018-02-08T04:23:34.392Z,35.45
2018-02-08T04:26:01.821Z,32.95
2018-02-08T04:28:29.240Z,34.22
2018-02-08T04:30:56.652Z,32.70
2018-02-08T04:33:24.070Z,37.80
2018-02-08T04:35:51.488Z,34.83
2018-02-08T04:38:24.628Z,35.88
2018-02-08T04:41:03.860Z,34.10
2018-02-08T04:43:42.876Z,32.72
2018-02-08T04:46:21.837Z,35.33
2018-02-08T04:48:49.260Z,35.30
2018-02-08T04:51:16.681Z,33.38
2018-02-08T04:53:44.102Z,35.05
2018-02-08T04:56:11.521Z,33.75
2018-02-08T04:58:38.929Z,34.08
2018-02-08T05:01:06.356Z,36.30
2018-02-08T05:03:33.776Z,34.83
2018-02-08T05:06:01.197Z,36.30
2018-02-08T05:08:28.614Z,33.97
2018-02-08T05:10:56.023Z,33.25
2018-02-08T05:13:23.457Z,34.63
2018-02-08T05:15:50.877Z,32.97
2018-02-08T05:18:18.288Z,36.80
2018-02-08T05:20:45.708Z,33.47
2018-02-08T05:23:13.127Z,34.40
2018-02-08T05:25:40.552Z,37.10
2018-02-08T05:28:07.960Z,35.92
2018-02-08T05:30:35.376Z,34.70
2018-02-08T05:33:02.798Z,34.65
2018-02-08T05:35:30.208Z,35.35
2018-02-08T05:37:57.637Z,36.75
2018-02-08T05:40:25.052Z,36.22
2018-02-08T05:42:52.461Z,35.55
2018-02-08T05:45:19.937Z,37.63
2018-02-08T05:47:47.348Z,35.03
2018-02-08T05:50:14.781Z,36.72
2018-02-08T05:52:42.192Z,35.10
2018-02-08T05:55:09.607Z,35.08
2018-02-08T05:57:37.025Z,34.53
2018-02-08T06:00:04.456Z,34.72
2018-02-08T06:02:32.357Z,34.28
2018-02-08T06:04:59.777Z,34.55
2018-02-08T06:07:27.183Z,36.97
2018-02-08T06:09:54.604Z,35.65
2018-02-08T06:12:22.021Z,34.80
2018-02-08T06:14:49.460Z,36.63
2018-02-08T06:17:16.868Z,35.40
2018-02-08T06:19:44.288Z,36.38
2018-02-08T06:22:11.712Z,37.83
2018-02-08T06:24:39.120Z,35.40
2018-02-08T06:27:06.556Z,36.92
2018-02-08T06:29:33.974Z,34.90
2018-02-08T06:32:01.395Z,34.63
2018-02-08T06:34:28.813Z,35.45
2018-02-08T06:36:56.227Z,36.92
2018-02-08T06:39:23.675Z,35.47
2018-02-08T06:41:51.085Z,34.42
2018-02-08T06:44:18.502Z,37.75
2018-02-08T06:46:45.927Z,38.10
2018-02-08T06:49:13.337Z,37.50
2018-02-08T06:51:40.781Z,38.10
2018-02-08T06:54:08.428Z,36.75
2018-02-08T06:56:35.869Z,37.38
2018-02-08T06:59:03.277Z,35.67
2018-02-08T07:01:30.721Z,37.40
2018-02-08T07:03:58.145Z,38.17
2018-02-08T07:06:25.644Z,38.97
2018-02-08T07:08:53.517Z,38.75
2018-02-08T07:11:21.059Z,38.53
2018-02-08T07:13:48.515Z,40.00
2018-02-08T07:16:16.020Z,37.40
2018-02-08T07:18:43.440Z,37.45
2018-02-08T07:21:10.863Z,36.85
2018-02-08T07:23:38.281Z,37.22
2018-02-08T07:26:05.758Z,37.80
2018-02-08T07:28:33.165Z,38.00
2018-02-08T07:31:00.576Z,36.17
2018-02-08T07:33:28.005Z,35.00
2018-02-08T07:35:55.427Z,38.60
2018-02-08T07:38:22.837Z,39.85
2018-02-08T07:40:50.363Z,40.60
2018-02-08T07:43:17.776Z,41.00
2018-02-08T07:45:45.198Z,37.58
2018-02-08T07:48:12.604Z,39.78
2018-02-08T07:50:40.957Z,40.38
2018-02-08T07:53:08.410Z,42.50
2018-02-08T07:55:35.843Z,40.95
2018-02-08T07:58:03.272Z,40.08
2018-02-08T08:00:31.296Z,40.92
2018-02-08T08:02:58.705Z,42.28
2018-02-08T08:05:26.118Z,42.13
2018-02-08T08:07:53.537Z,42.28
2018-02-08T08:10:20.953Z,42.92
2018-02-08T08:12:48.364Z,40.45
2018-02-08T08:15:15.791Z,41.97
2018-02-08T08:17:43.200Z,40.28
2018-02-08T08:20:10.618Z,40.63
2018-02-08T08:22:38.038Z,44.30
2018-02-08T08:25:05.460Z,42.45
2018-02-08T08:27:32.897Z,42.80
2018-02-08T08:30:00.305Z,42.40
2018-02-08T08:32:27.721Z,40.35
2018-02-08T08:34:55.132Z,42.38
2018-02-08T08:37:22.585Z,41.30
2018-02-08T08:39:50.053Z,40.22
2018-02-08T08:42:17.460Z,40.63
2018-02-08T08:44:44.875Z,42.62
2018-02-08T08:47:12.325Z,41.80
2018-02-08T08:49:39.740Z,40.97
2018-02-08T08:52:07.162Z,41.60
2018-02-08T08:54:34.573Z,41.70
2018-02-08T08:57:01.986Z,39.33
2018-02-08T08:59:29.417Z,41.95
2018-02-08T09:01:56.837Z,42.30
2018-02-08T09:04:24.289Z,43.10
2018-02-08T09:06:51.684Z,43.15
2018-02-08T09:09:19.100Z,42.88
2018-02-08T09:11:46.520Z,39.85
2018-02-08T09:14:13.933Z,43.22
2018-02-08T09:16:41.372Z,42.70
2018-02-08T09:19:08.788Z,41.90
2018-02-08T09:21:36.213Z,43.63
2018-02-08T09:24:03.626Z,43.63
2018-02-08T09:26:31.040Z,42.92
2018-02-08T09:28:58.460Z,42.45
2018-02-08T09:31:25.876Z,44.58
2018-02-08T09:33:53.287Z,41.65
2018-02-08T09:36:20.701Z,42.70
2018-02-08T09:38:48.116Z,41.25
2018-02-08T09:41:15.552Z,41.17
2018-02-08T09:43:42.976Z,42.20
2018-02-08T09:46:10.377Z,43.60
2018-02-08T09:48:37.795Z,42.67
2018-02-08T09:51:05.204Z,43.05
2018-02-08T09:53:32.625Z,42.67
2018-02-08T09:56:00.039Z,41.50
2018-02-08T09:58:27.451Z,46.15
2018-02-08T10:00:54.872Z,44.78
2018-02-08T10:03:22.297Z,44.70
2018-02-08T10:05:49.728Z,45.17
2018-02-08T10:08:17.948Z,45.03
2018-02-08T10:10:45.358Z,41.08
2018-02-08T10:13:12.772Z,42.92
2018-02-08T10:15:40.186Z,44.92
2018-02-08T10:18:07.604Z,43.50
2018-02-08T10:20:35.021Z,45.12
2018-02-08T10:23:02.440Z,45.47
2018-02-08T10:25:29.857Z,46.50
2018-02-08T10:27:57.268Z,49.28
2018-02-08T10:30:24.694Z,46.03
2018-02-08T10:32:52.108Z,44.53
2018-02-08T10:35:19.524Z,47.80
2018-02-08T10:37:46.941Z,46.90
2018-02-08T10:40:14.366Z,43.58
2018-02-08T10:42:41.781Z,46.30
2018-02-08T10:45:09.196Z,44.80
2018-02-08T10:47:36.627Z,46.55
2018-02-08T10:50:04.044Z,43.90
2018-02-08T10:52:31.480Z,46.35
2018-02-08T10:54:58.901Z,45.47
2018-02-08T10:57:26.324Z,46.72
2018-02-08T10:59:53.752Z,45.85
2018-02-08T11:02:21.192Z,45.67
2018-02-08T11:04:48.618Z,45.78
2018-02-08T11:07:16.040Z,43.58
2018-02-08T11:09:43.751Z,44.70
2018-02-08T11:12:11.364Z,45.22
2018-02-08T11:14:38.781Z,46.65
2018-02-08T11:17:06.215Z,45.55
2018-02-08T11:19:33.632Z,44.85
2018-02-08T11:22:01.044Z,46.37
2018-02-08T11:24:28.463Z,46.53
2018-02-08T11:26:55.881Z,45.58
2018-02-08T11:29:23.313Z,44.92
2018-02-08T11:31:50.736Z,46.10
2018-02-08T11:34:18.144Z,45.07
2018-02-08T11:36:45.577Z,48.53
2018-02-08T11:39:12.997Z,45.63
2018-02-08T11:41:40.418Z,47.10
2018-02-08T11:44:07.820Z,46.83
2018-02-08T11:46:35.233Z,47.53
2018-02-08T11:49:02.653Z,45.83
2018-02-08T11:51:30.089Z,49.60
2018-02-08T11:53:57.713Z,49.15
2018-02-08T11:56:25.125Z,48.73
2018-02-08T11:58:52.576Z,48.60
2018-02-08T12:01:21.472Z,49.43
2018-02-08T12:03:53.332Z,48.50
2018-02-08T12:06:21.978Z,49.05
2018-02-08T12:08:49.393Z,48.30
2018-02-08T12:11:16.838Z,46.70
2018-02-08T12:13:44.276Z,47.90
2018-02-08T12:16:11.684Z,44.87
2018-02-08T12:18:39.120Z,47.10
2018-02-08T12:21:06.570Z,46.00
2018-02-08T12:23:34.004Z,46.13
2018-02-08T12:26:01.470Z,46.95
2018-02-08T12:28:28.880Z,46.90
2018-02-08T12:30:56.321Z,43.20
2018-02-08T12:33:23.792Z,44.20
2018-02-08T12:35:51.224Z,43.25
2018-02-08T12:38:18.644Z,42.63
2018-02-08T12:40:46.111Z,42.50
2018-02-08T12:43:13.541Z,41.53
2018-02-08T12:45:40.974Z,41.75
2018-02-08T12:48:08.378Z,40.80
2018-02-08T12:50:35.804Z,39.67
2018-02-08T12:53:03.212Z,39.60
2018-02-08T12:55:30.635Z,41.80
2018-02-08T12:57:58.041Z,37.30
2018-02-08T13:00:25.446Z,39.00
2018-02-08T13:02:52.856Z,39.23
2018-02-08T13:05:20.317Z,41.17
2018-02-08T13:07:47.896Z,41.83
2018-02-08T13:10:16.421Z,42.07
2018-02-08T13:12:43.826Z,44.40
2018-02-08T13:15:12.101Z,41.20
2018-02-08T13:17:39.507Z,40.97
2018-02-08T13:20:06.972Z,43.60
2018-02-08T13:22:34.395Z,43.37
2018-02-08T13:25:01.808Z,42.93
2018-02-08T13:27:29.326Z,42.50
2018-02-08T13:29:56.742Z,43.43
2018-02-08T13:32:24.181Z,41.20
2018-02-08T13:34:51.586Z,40.37
2018-02-08T13:37:19.028Z,42.10
2018-02-08T13:40:00.137Z,41.70
2018-02-08T13:42:28.116Z,42.13
2018-02-08T13:44:55.541Z,41.30
2018-02-08T13:47:22.945Z,41.40
2018-02-08T13:49:55.974Z,40.10
2018-02-08T13:55:37.884Z,40.87
2018-02-08T13:58:08.173Z,40.80
2018-02-08T14:00:40.449Z,41.33
2018-02-08T14:03:07.896Z,40.97
2018-02-08T14:05:35.296Z,44.43
2018-02-08T14:08:02.706Z,42.37
2018-02-08T14:10:30.140Z,42.90
2018-02-08T14:12:57.665Z,42.03
2018-02-08T14:15:25.087Z,40.20
2018-02-08T14:17:52.481Z,40.37
2018-02-08T14:20:19.888Z,41.13
2018-02-08T14:22:47.328Z,41.97
2018-02-08T14:25:14.732Z,40.87
2018-02-08T14:27:42.137Z,41.50
2018-02-08T14:30:09.557Z,43.17
2018-02-08T14:32:36.972Z,43.00
2018-02-08T14:35:04.409Z,43.33
2018-02-08T14:37:31.826Z,42.60
2018-02-08T14:39:59.236Z,41.40
2018-02-08T14:42:26.648Z,42.50
2018-02-08T14:44:54.052Z,42.70
2018-02-08T14:47:21.478Z,45.73
2018-02-08T14:49:48.889Z,43.77
2018-02-08T14:52:16.309Z,46.47
2018-02-08T14:54:43.745Z,45.70
2018-02-08T14:57:11.154Z,43.92
2018-02-08T14:59:38.572Z,40.07
2018-02-08T15:02:05.988Z,46.55
2018-02-08T15:04:33.404Z,44.92
2018-02-08T15:07:00.832Z,44.88
2018-02-08T15:09:28.241Z,43.50
2018-02-08T15:11:55.661Z,44.10
2018-02-08T15:14:23.080Z,42.90
2018-02-08T15:16:50.496Z,44.13
2018-02-08T15:19:17.926Z,43.72
2018-02-08T15:21:45.351Z,45.47
2018-02-08T15:24:12.776Z,44.63
2018-02-08T15:26:40.201Z,44.90
2018-02-08T15:29:07.620Z,43.22
2018-02-08T15:31:35.051Z,43.92
2018-02-08T15:34:02.464Z,45.05
2018-02-08T15:36:29.890Z,44.80
2018-02-08T15:38:57.327Z,46.72
2018-02-08T15:41:25.040Z,42.88
2018-02-08T15:43:52.839Z,45.60
2018-02-08T15:46:21.073Z,44.65
2018-02-08T15:48:48.922Z,46.25
2018-02-08T15:51:16.856Z,45.80
2018-02-08T15:53:48.958Z,46.17
2018-02-08T15:56:17.326Z,46.83
2018-02-08T15:58:45.968Z,48.40
2018-02-08T16:01:15.490Z,47.65
2018-02-08T16:03:43.337Z,46.42
2018-02-08T16:06:11.211Z,47.75
2018-02-08T16:08:43.524Z,47.67
2018-02-08T16:11:12.057Z,50.20
2018-02-08T16:13:48.678Z,46.58
2018-02-08T16:16:18.279Z,47.60
2018-02-08T16:18:48.191Z,49.80
2018-02-08T16:21:16.141Z,50.20
2018-02-08T16:23:44.307Z,49.67
2018-02-08T16:26:13.189Z,47.80
2018-02-08T16:28:41.926Z,47.85
2018-02-08T16:31:09.828Z,51.47
2018-02-08T16:33:38.281Z,48.90
2018-02-08T16:36:06.634Z,49.58
2018-02-08T16:38:48.598Z,48.95
2018-02-08T16:41:19.729Z,50.97
2018-02-08T16:43:47.232Z,50.30
2018-02-08T16:46:16.555Z,48.58
2018-02-08T16:48:51.490Z,49.83
2018-02-08T16:51:24.817Z,48.70
2018-02-08T16:53:55.754Z,49.53
2018-02-08T16:56:24.814Z,48.60
2018-02-08T16:58:55.094Z,48.33
2018-02-08T17:01:26.730Z,52.95
2018-02-08T17:06:29.804Z,50.35
2018-02-08T17:09:03.509Z,48.60
2018-02-08T17:11:30.950Z,49.95
2018-02-08T17:13:58.399Z,49.88
2018-02-08T17:16:25.907Z,49.60
2018-02-08T17:18:53.288Z,50.63
2018-02-08T17:21:20.712Z,51.42
2018-02-08T17:23:48.142Z,50.58
2018-02-08T17:26:15.699Z,50.28
2018-02-08T17:28:43.120Z,50.70
2018-02-08T17:31:10.533Z,51.92
2018-02-08T17:33:38.443Z,49.90
2018-02-08T17:36:05.893Z,50.47
2018-02-08T17:38:43.241Z,47.97
2018-02-08T17:41:11.568Z,46.50
2018-02-08T17:43:38.992Z,51.33
2018-02-08T17:46:06.412Z,50.15
2018-02-08T17:48:46.792Z,47.70
2018-02-08T17:51:14.204Z,46.95
2018-02-08T17:53:41.628Z,48.92
2018-02-08T17:56:09.078Z,49.53
2018-02-08T17:58:36.567Z,49.80
2018-02-08T18:01:03.941Z,49.10
2018-02-08T18:03:45.028Z,49.58
2018-02-08T18:06:12.490Z,47.75
2018-02-08T18:08:39.870Z,49.15
2018-02-08T18:11:07.313Z,47.33
2018-02-08T18:13:34.733Z,48.40
2018-02-08T18:16:02.232Z,49.08
2018-02-08T18:18:29.633Z,50.42
2018-02-08T18:20:57.056Z,50.45
2018-02-08T18:23:24.485Z,48.72
2018-02-08T18:25:51.921Z,48.65
2018-02-08T18:28:19.406Z,48.22
2018-02-08T18:30:46.840Z,47.53
2018-02-08T18:33:14.250Z,49.92
2018-02-08T18:35:41.685Z,47.92
2018-02-08T18:38:09.112Z,48.63
2018-02-08T18:40:36.537Z,49.03
2018-02-08T18:43:03.945Z,48.47
2018-02-08T18:45:31.414Z,45.20
2018-02-08T18:47:58.813Z,49.40
2018-02-08T18:50:26.264Z,47.78
2018-02-08T18:52:53.705Z,48.85
2018-02-08T18:55:21.192Z,49.38
2018-02-08T18:57:50.297Z,49.38
2018-02-08T19:00:18.397Z,46.53
2018-02-08T19:02:46.617Z,47.40
2018-02-08T19:05:14.051Z,48.70
2018-02-08T19:07:41.508Z,48.58
2018-02-08T19:10:08.937Z,45.45
2018-02-08T19:12:36.357Z,50.58
2018-02-08T19:15:03.864Z,49.53
2018-02-08T19:17:45.309Z,50.17
2018-02-08T19:20:12.756Z,47.88
2018-02-08T19:22:41.697Z,49.00
2018-02-08T19:25:09.139Z,51.60
2018-02-08T19:27:36.557Z,51.10
2018-02-08T19:30:04.437Z,51.97
2018-02-08T19:32:31.898Z,52.25
2018-02-08T19:34:59.930Z,51.35
2018-02-08T19:37:28.814Z,50.50
2018-02-08T19:39:56.848Z,49.20
2018-02-08T19:42:25.087Z,50.78
2018-02-08T19:44:53.225Z,50.95
2018-02-08T19:47:21.463Z,50.42
2018-02-08T19:49:50.176Z,54.78
2018-02-08T19:52:18.508Z,57.58
2018-02-08T19:54:45.971Z,74.60
2018-02-08T19:57:14.324Z,67.37
2018-02-08T19:59:47.571Z,57.97
2018-02-08T20:02:16.928Z,52.58
2018-02-08T20:04:45.137Z,55.30
2018-02-08T20:07:13.922Z,49.17
2018-02-08T20:09:41.411Z,48.60
2018-02-08T20:12:09.788Z,49.00
2018-02-08T20:14:52.660Z,47.85
2018-02-08T20:17:20.968Z,48.65
2018-02-08T20:19:48.390Z,49.47
2018-02-08T20:22:15.828Z,49.53
2018-02-08T20:24:44.324Z,50.70
2018-02-08T20:27:11.756Z,53.22
2018-02-08T20:29:39.185Z,52.90
2018-02-08T20:32:06.649Z,53.28
2018-02-08T20:34:34.094Z,51.83
2018-02-08T20:37:01.532Z,52.72
2018-02-08T20:39:28.988Z,52.95
2018-02-08T20:41:56.403Z,53.45
2018-02-08T20:44:23.821Z,52.55
2018-02-08T20:46:51.245Z,53.70
2018-02-08T20:49:18.677Z,53.30
2018-02-08T20:51:46.103Z,53.72
2018-02-08T20:54:13.513Z,53.28
2018-02-08T20:56:40.990Z,52.15
2018-02-08T20:59:08.438Z,53.53
2018-02-08T21:01:35.865Z,56.53
2018-02-08T21:04:03.322Z,52.95
2018-02-08T21:06:30.741Z,52.28
2018-02-08T21:08:58.157Z,52.50
2018-02-08T21:11:25.625Z,53.38
2018-02-08T21:13:53.084Z,54.45
2018-02-08T21:16:20.515Z,52.30
2018-02-08T21:18:47.941Z,54.60
2018-02-08T21:21:15.372Z,59.67
2018-02-08T21:23:42.821Z,57.28
2018-02-08T21:26:10.254Z,58.42
2018-02-08T21:28:37.693Z,55.83
2018-02-08T21:31:05.153Z,55.22
2018-02-08T21:33:32.581Z,55.80
2018-02-08T21:36:00.050Z,55.90
2018-02-08T21:38:27.485Z,55.38
2018-02-08T21:40:54.930Z,54.20
2018-02-08T21:43:22.373Z,56.22
2018-02-08T21:45:49.792Z,55.92
2018-02-08T21:48:17.240Z,58.42
2018-02-08T21:50:44.671Z,57.38
2018-02-08T21:53:12.088Z,55.97
2018-02-08T21:55:39.504Z,55.08
2018-02-08T21:58:06.953Z,57.97
2018-02-08T22:00:34.365Z,61.05
2018-02-08T22:03:01.832Z,61.78
2018-02-08T22:05:29.272Z,58.78
2018-02-08T22:07:56.706Z,59.40
2018-02-08T22:10:24.125Z,60.25
2018-02-08T22:12:51.556Z,60.22
2018-02-08T22:15:18.996Z,60.08
2018-02-08T22:17:46.460Z,60.53
2018-02-08T22:20:13.881Z,56.22
2018-02-08T22:22:41.335Z,56.00
2018-02-08T22:25:08.741Z,57.55
2018-02-08T22:27:36.173Z,53.97
2018-02-08T22:30:03.648Z,56.08
2018-02-08T22:32:31.065Z,57.70
2018-02-08T22:34:58.493Z,57.22
2018-02-08T22:37:25.901Z,58.75
2018-02-08T22:39:53.344Z,59.30
2018-02-08T22:42:20.807Z,54.80
2018-02-08T22:44:48.245Z,56.10
2018-02-08T22:47:15.662Z,52.90
2018-02-08T22:49:43.080Z,53.35
2018-02-08T22:52:10.505Z,53.20
2018-02-08T22:54:37.937Z,57.28
2018-02-08T22:57:05.365Z,58.55
2018-02-08T22:59:32.789Z,57.13
2018-02-08T23:02:00.220Z,56.75
2018-02-08T23:04:27.646Z,59.17
2018-02-08T23:06:55.070Z,57.92
2018-02-08T23:09:22.499Z,60.08
2018-02-08T23:11:49.917Z,60.90
2018-02-08T23:14:17.358Z,59.47
2018-02-08T23:16:44.832Z,59.17
2018-02-08T23:19:12.252Z,57.33
2018-02-08T23:21:39.685Z,59.83
2018-02-08T23:24:07.110Z,64.32
2018-02-08T23:26:34.556Z,62.20
2018-02-08T23:29:01.980Z,58.47
2018-02-08T23:31:29.405Z,59.38
2018-02-08T23:33:56.866Z,58.13
2018-02-08T23:36:24.294Z,57.38
2018-02-08T23:38:51.720Z,59.83
2018-02-08T23:41:19.168Z,58.80
2018-02-08T23:43:46.616Z,62.38
2018-02-08T23:46:14.038Z,61.53
2018-02-08T23:48:41.466Z,57.78
2018-02-08T23:51:08.905Z,58.55
2018-02-08T23:53:36.369Z,59.15
2018-02-08T23:56:03.800Z,58.17
2018-02-08T23:58:31.243Z,57.62
